Time;durP1;ratioP1;P1;durP2;ratioP2;P2;SDS_P1;SDS_P2;PMS_P1;PMS_P2;Temp;Humidity;BMP_temperature;BMP_pressure;BME280_temperature;BME280_humidity;BME280_pressure;Samples;Min_cycle;Max_cycle;Signal;HPM_P1;HPM_P2
2023/08/20 00:02:23;;;;;;;10.77;2.10;;;;;;;22.88;65.93;101463.16;5053165;28;20602;-63
2023/08/20 00:04:50;;;;;;;11.48;2.47;;;;;;;22.80;65.00;101465.09;5051677;28;20053;-62
2023/08/20 00:07:18;;;;;;;11.65;2.75;;;;;;;22.76;65.83;101469.00;5050623;28;20089;-62
2023/08/20 00:09:45;;;;;;;10.75;2.28;;;;;;;23.05;64.81;101471.03;5034980;28;20056;-62
2023/08/20 00:12:13;;;;;;;11.70;3.00;;;;;;;22.73;65.17;101473.41;5041976;28;20825;-62
2023/08/20 00:15:06;;;;;;;10.15;2.80;;;;;;;22.63;65.84;101470.41;5031970;28;20049;-62
2023/08/20 00:17:34;;;;;;;9.82;1.98;;;;;;;22.94;65.31;101464.47;5015521;28;20064;-62
2023/08/20 00:20:10;;;;;;;9.47;2.20;;;;;;;23.08;64.72;101459.84;5034123;28;20061;-62
2023/08/20 00:22:37;;;;;;;11.65;2.50;;;;;;;22.90;64.17;101461.63;5052839;28;20071;-62
2023/08/20 00:25:05;;;;;;;12.63;2.90;;;;;;;23.23;64.18;101469.31;5052442;28;20508;-62
2023/08/20 00:27:32;;;;;;;13.85;2.65;;;;;;;23.25;63.95;101470.56;5034789;28;20037;-62
2023/08/20 00:30:00;;;;;;;8.75;2.03;;;;;;;22.98;64.56;101468.16;5055655;28;20040;-62
2023/08/20 00:32:28;;;;;;;12.18;2.45;;;;;;;22.67;65.60;101474.91;5071583;28;20496;-62
2023/08/20 00:34:56;;;;;;;9.55;2.60;;;;;;;22.73;65.13;101475.38;5068008;28;20053;-62
2023/08/20 00:37:25;;;;;;;11.95;2.30;;;;;;;22.65;66.12;101476.47;5054897;28;20496;-61
2023/08/20 00:39:53;;;;;;;8.75;2.70;;;;;;;22.81;64.77;101475.13;5072710;28;20064;-62
2023/08/20 00:42:20;;;;;;;11.38;2.60;;;;;;;22.54;66.09;101481.06;5071555;28;20068;-62
2023/08/20 00:44:47;;;;;;;9.40;2.60;;;;;;;22.66;65.66;101476.09;5051978;28;20510;-63
2023/08/20 00:47:16;;;;;;;7.63;2.03;;;;;;;22.64;66.17;101480.44;5050978;28;20552;-63
2023/08/20 00:49:45;;;;;;;8.53;2.70;;;;;;;22.60;65.97;101477.59;5055327;28;20053;-63
2023/08/20 00:52:14;;;;;;;11.40;3.28;;;;;;;22.34;66.40;101486.75;5053472;28;20512;-62
2023/08/20 00:54:44;;;;;;;13.43;2.63;;;;;;;22.19;67.38;101484.84;5056643;28;20507;-64
2023/08/20 00:57:14;;;;;;;11.55;2.53;;;;;;;22.12;67.82;101476.31;5055355;28;20056;-63
2023/08/20 00:59:43;;;;;;;12.07;2.60;;;;;;;22.05;67.95;101479.00;5055357;28;20052;-63
2023/08/20 01:02:10;;;;;;;11.43;2.50;;;;;;;21.97;68.39;101476.41;5054721;28;20067;-62
2023/08/20 01:04:38;;;;;;;12.55;2.60;;;;;;;22.18;68.02;101480.44;5056670;28;20496;-63
2023/08/20 01:07:28;;;;;;;9.15;2.35;;;;;;;22.32;67.67;101486.31;5038354;28;20427;-63
2023/08/20 01:10:05;;;;;;;11.40;2.65;;;;;;;22.16;67.71;101490.41;5055273;28;20061;-62
2023/08/20 01:12:34;;;;;;;11.05;2.75;;;;;;;22.19;68.39;101479.25;5054484;28;20049;-63
2023/08/20 01:15:02;;;;;;;11.18;2.42;;;;;;;22.30;67.55;101473.81;5054959;28;20057;-63
2023/08/20 01:17:29;;;;;;;11.43;2.40;;;;;;;22.30;67.68;101477.44;5045575;28;20046;-62
2023/08/20 01:19:58;;;;;;;9.88;2.30;;;;;;;22.29;68.34;101481.44;5036511;28;20056;-62
2023/08/20 01:22:54;;;;;;;8.55;2.20;;;;;;;22.56;67.20;101495.56;5054917;28;20043;-63
2023/08/20 01:25:41;;;;;;;9.60;2.03;;;;;;;22.41;67.46;101493.66;5056100;28;20045;-64
2023/08/20 01:28:28;;;;;;;8.90;2.22;;;;;;;22.49;67.51;101487.00;5054165;28;20072;-62
2023/08/20 01:31:00;;;;;;;11.68;2.80;;;;;;;22.50;67.46;101488.59;5053816;28;20075;-63
2023/08/20 01:33:28;;;;;;;9.23;2.35;;;;;;;22.42;67.68;101487.66;5068786;28;20045;-63
2023/08/20 01:35:58;;;;;;;;;;;;;;;22.45;67.10;101489.75;5038350;28;20056;-63
2023/08/20 01:38:25;;;;;;;13.15;2.72;;;;;;;22.55;66.86;101493.94;5066515;28;19924;-63
2023/08/20 01:40:52;;;;;;;10.93;2.50;;;;;;;22.70;66.39;101502.22;5068090;28;20065;-63
2023/08/20 01:43:20;;;;;;;8.88;2.38;;;;;;;22.28;67.52;101505.06;5054355;28;20052;-63
2023/08/20 01:45:49;;;;;;;10.45;2.22;;;;;;;22.55;66.77;101491.94;5055400;28;20106;-63
2023/08/20 01:48:17;;;;;;;8.68;2.20;;;;;;;22.46;66.81;101496.16;5051994;28;20056;-63
2023/08/20 01:50:45;;;;;;;13.05;2.85;;;;;;;22.56;66.62;101482.31;5051814;28;20037;-62
2023/08/20 01:53:13;;;;;;;10.90;2.42;;;;;;;22.37;66.88;101484.38;5055036;28;20044;-62
2023/08/20 01:55:42;;;;;;;13.07;2.75;;;;;;;22.25;67.90;101493.78;5049860;28;20053;-62
2023/08/20 01:58:09;;;;;;;11.15;2.38;;;;;;;22.18;68.01;101491.66;5035969;28;20058;-62
2023/08/20 02:00:36;;;;;;;12.15;3.08;;;;;;;22.28;68.43;101490.25;5033590;28;20060;-64
2023/08/20 02:03:04;;;;;;;9.52;2.38;;;;;;;22.55;67.22;101486.34;5034282;28;20485;-62
2023/08/20 02:05:31;;;;;;;8.60;2.47;;;;;;;22.22;68.01;101494.53;5017287;28;20064;-62
2023/08/20 02:07:59;;;;;;;12.30;2.35;;;;;;;22.24;68.20;101487.38;5040482;28;20041;-62
2023/08/20 02:10:26;;;;;;;10.43;2.72;;;;;;;22.27;68.68;101497.84;5055893;28;20049;-62
2023/08/20 02:12:54;;;;;;;13.05;2.38;;;;;;;22.20;68.54;101502.50;5054957;28;20064;-61
2023/08/20 02:15:21;;;;;;;8.00;2.00;;;;;;;22.04;69.32;101491.41;5053561;28;20053;-62
2023/08/20 02:17:48;;;;;;;11.02;2.45;;;;;;;22.00;69.38;101495.34;5055011;28;20052;-62
2023/08/20 02:20:16;;;;;;;8.85;2.17;;;;;;;21.90;69.45;101502.34;5053705;28;20063;-62
2023/08/20 02:22:43;;;;;;;12.15;2.30;;;;;;;22.02;69.45;101492.97;5052884;28;20044;-63
2023/08/20 02:25:11;;;;;;;11.07;2.83;;;;;;;22.10;68.66;101503.13;5057282;28;20059;-62
2023/08/20 02:27:38;;;;;;;11.70;2.50;;;;;;;22.05;69.11;101500.63;5054615;28;20041;-62
2023/08/20 02:30:06;;;;;;;10.98;2.88;;;;;;;22.10;69.09;101500.31;5060762;28;20059;-62
2023/08/20 02:32:35;;;;;;;8.95;2.08;;;;;;;22.14;69.38;101490.78;5073674;28;20063;-63
2023/08/20 02:35:05;;;;;;;9.68;2.30;;;;;;;22.19;68.98;101490.47;5068090;28;20061;-62
2023/08/20 02:37:32;;;;;;;13.90;2.47;;;;;;;22.26;68.78;101490.59;5054144;28;20045;-63
2023/08/20 02:40:00;;;;;;;12.48;2.85;;;;;;;22.17;68.62;101492.88;5034743;28;20045;-64
2023/08/20 02:42:28;;;;;;;9.30;2.45;;;;;;;21.89;69.36;101499.91;5043363;28;20061;-64
2023/08/20 02:44:55;;;;;;;8.20;1.92;;;;;;;21.82;70.58;101499.78;5034224;28;20049;-63
2023/08/20 02:47:25;;;;;;;10.65;2.60;;;;;;;21.74;70.44;101495.19;5054674;28;20064;-63
2023/08/20 02:49:52;;;;;;;9.13;2.30;;;;;;;21.71;70.41;101493.91;5054439;28;20479;-64
2023/08/20 02:52:20;;;;;;;11.55;2.67;;;;;;;21.74;70.42;101492.38;5054397;28;20041;-63
2023/08/20 02:54:47;;;;;;;11.95;2.75;;;;;;;21.95;70.09;101493.63;5052861;28;20777;-64
2023/08/20 02:57:15;;;;;;;6.95;2.05;;;;;;;22.29;69.34;101489.88;5048547;28;20041;-64
2023/08/20 02:59:42;;;;;;;15.93;3.20;;;;;;;22.16;69.21;101488.41;5054240;28;20048;-63
2023/08/20 03:02:10;;;;;;;14.32;2.40;;;;;;;21.69;70.55;101493.47;5052931;28;20057;-63
2023/08/20 03:04:37;;;;;;;11.93;2.53;;;;;;;21.68;70.91;101494.66;5036187;28;20053;-64
2023/08/20 03:07:04;;;;;;;11.13;2.33;;;;;;;21.56;71.45;101492.00;5052888;28;20076;-64
2023/08/20 03:09:32;;;;;;;10.30;2.40;;;;;;;21.40;72.12;101488.47;5053826;28;20053;-64
2023/08/20 03:11:59;;;;;;;10.60;2.30;;;;;;;21.26;72.73;101490.94;5054187;28;20049;-63
2023/08/20 03:14:27;;;;;;;11.57;2.55;;;;;;;21.36;72.63;101487.56;5050023;28;20056;-64
2023/08/20 03:16:55;;;;;;;12.73;2.60;;;;;;;21.52;71.86;101487.50;5037749;28;20053;-62
2023/08/20 03:19:22;;;;;;;10.25;2.40;;;;;;;21.58;71.54;101494.44;5032416;28;20042;-63
2023/08/20 03:21:50;;;;;;;12.93;2.60;;;;;;;21.66;71.62;101483.00;5049626;28;20052;-63
2023/08/20 03:24:17;;;;;;;8.25;2.22;;;;;;;21.55;71.52;101492.38;5050528;28;20064;-63
2023/08/20 03:26:46;;;;;;;10.10;2.33;;;;;;;21.76;71.27;101487.22;5040110;28;20044;-64
2023/08/20 03:29:14;;;;;;;8.60;2.20;;;;;;;21.75;70.88;101485.56;5055615;28;20045;-63
2023/08/20 03:31:41;;;;;;;11.00;2.60;;;;;;;21.97;70.54;101485.66;5059663;28;20049;-64
2023/08/20 03:34:09;;;;;;;12.48;2.05;;;;;;;22.08;69.59;101485.84;5053521;28;20057;-63
2023/08/20 03:36:37;;;;;;;8.75;2.45;;;;;;;21.95;69.43;101484.41;5052627;28;20071;-63
2023/08/20 03:39:04;;;;;;;10.43;2.35;;;;;;;21.58;71.86;101486.03;5052056;28;20052;-63
2023/08/20 03:41:32;;;;;;;10.63;2.50;;;;;;;21.62;71.73;101492.53;5053478;28;20060;-64
2023/08/20 03:44:00;;;;;;;7.97;2.38;;;;;;;21.85;71.28;101487.81;5051964;28;20041;-64
2023/08/20 03:46:27;;;;;;;13.45;2.40;;;;;;;21.77;70.79;101480.41;5052091;28;20049;-65
2023/08/20 03:48:55;;;;;;;12.18;2.45;;;;;;;22.04;69.71;101482.16;5030921;28;20049;-64
2023/08/20 03:51:22;;;;;;;9.55;2.35;;;;;;;22.35;68.80;101485.56;5051769;28;20060;-64
2023/08/20 03:53:50;;;;;;;12.50;2.60;;;;;;;22.43;68.83;101491.28;5053115;28;20045;-65
2023/08/20 03:56:17;;;;;;;8.40;1.85;;;;;;;22.46;67.99;101490.53;5051641;28;20086;-64
2023/08/20 03:58:45;;;;;;;13.35;3.03;;;;;;;22.49;67.99;101496.22;5053133;28;20052;-65
2023/08/20 04:01:12;;;;;;;9.43;2.25;;;;;;;22.50;68.23;101491.41;5051196;28;20163;-65
2023/08/20 04:03:40;;;;;;;11.82;2.75;;;;;;;22.61;67.72;101504.50;5053222;28;20044;-65
2023/08/20 04:06:07;;;;;;;8.18;2.25;;;;;;;22.28;68.90;101499.47;5030242;28;20049;-65
2023/08/20 04:08:36;;;;;;;10.48;2.35;;;;;;;22.56;68.08;101504.00;5051534;28;20057;-65
2023/08/20 04:11:03;;;;;;;12.15;2.42;;;;;;;22.42;68.27;101496.09;5034833;28;20050;-64
2023/08/20 04:13:31;;;;;;;8.20;2.00;;;;;;;22.16;68.88;101498.81;5033209;28;20050;-65
2023/08/20 04:15:58;;;;;;;11.82;2.88;;;;;;;21.80;70.19;101494.53;5032873;28;20053;-64
2023/08/20 04:18:26;;;;;;;8.55;2.17;;;;;;;21.79;70.93;101506.13;5036348;28;20053;-63
2023/08/20 04:20:57;;;;;;;9.48;2.47;;;;;;;21.89;70.34;101508.34;5043207;28;20044;-61
2023/08/20 04:23:25;;;;;;;11.43;2.70;;;;;;;21.72;70.88;101505.94;5057151;28;20044;-63
2023/08/20 04:25:52;;;;;;;10.02;2.40;;;;;;;21.69;71.16;101521.50;5061070;28;20400;-63
2023/08/20 04:28:20;;;;;;;6.78;2.10;;;;;;;21.48;72.55;101514.66;5055598;28;20068;-63
2023/08/20 04:30:48;;;;;;;8.27;2.30;;;;;;;21.31;72.68;101518.69;5070202;28;20049;-62
2023/08/20 04:33:15;;;;;;;12.90;2.63;;;;;;;21.09;73.89;101516.59;5076988;28;20055;-62
2023/08/20 04:35:45;;;;;;;10.90;2.60;;;;;;;21.08;74.29;101514.94;5063637;28;20048;-63
2023/08/20 04:38:13;;;;;;;12.20;2.63;;;;;;;21.11;74.36;101506.63;5050305;28;20413;-63
2023/08/20 04:40:40;;;;;;;9.00;2.30;;;;;;;21.15;74.68;101515.94;5038938;28;20044;-63
2023/08/20 04:43:08;;;;;;;11.95;2.88;;;;;;;21.32;74.02;101525.09;5057485;28;20064;-64
2023/08/20 04:45:35;;;;;;;12.10;2.60;;;;;;;21.49;73.35;101519.91;5056305;28;20060;-64
2023/08/20 04:48:03;;;;;;;9.88;2.50;;;;;;;21.44;73.12;101520.19;5038851;28;20052;-62
2023/08/20 04:50:30;;;;;;;14.35;2.45;;;;;;;21.45;73.48;101519.00;5055329;28;20041;-63
2023/08/20 04:52:59;;;;;;;13.35;3.08;;;;;;;21.82;72.16;101520.22;5055205;28;20048;-63
2023/08/20 04:55:27;;;;;;;11.13;2.53;;;;;;;21.93;71.58;101528.84;5050740;28;20393;-63
2023/08/20 04:57:55;;;;;;;11.43;2.40;;;;;;;22.09;70.80;101527.56;5057143;28;20064;-63
2023/08/20 05:00:23;;;;;;;15.70;2.70;;;;;;;22.03;70.54;101522.63;5055106;28;20049;-63
2023/08/20 05:02:55;;;;;;;14.02;2.72;;;;;;;21.75;71.56;101528.47;5055282;28;20060;-61
2023/08/20 05:05:24;;;;;;;10.10;2.30;;;;;;;21.84;70.90;101528.25;5055131;28;20048;-62
2023/08/20 05:07:52;;;;;;;10.23;2.40;;;;;;;21.93;70.81;101526.06;5055175;28;20052;-61
2023/08/20 05:10:20;;;;;;;11.68;2.70;;;;;;;21.75;71.44;101530.44;5054321;28;20045;-61
2023/08/20 05:12:47;;;;;;;10.82;2.47;;;;;;;21.76;71.81;101529.28;5039727;28;20057;-62
2023/08/20 05:15:16;;;;;;;9.50;2.40;;;;;;;21.74;71.77;101538.03;5036301;28;20053;-62
2023/08/20 05:17:43;;;;;;;12.02;2.47;;;;;;;21.85;71.72;101527.91;5036393;28;20045;-61
2023/08/20 05:20:11;;;;;;;11.90;2.90;;;;;;;22.15;70.29;101534.50;5036967;28;20050;-62
2023/08/20 05:22:39;;;;;;;8.63;2.22;;;;;;;22.21;70.50;101527.41;5055985;28;20124;-64
2023/08/20 05:25:06;;;;;;;10.45;2.10;;;;;;;22.33;70.26;101532.03;5052454;28;20056;-63
2023/08/20 05:27:34;;;;;;;8.55;2.17;;;;;;;22.33;70.08;101535.63;5038761;28;20045;-62
2023/08/20 05:30:07;;;;;;;8.85;2.05;;;;;;;22.23;70.65;101532.63;5052133;28;20045;-61
2023/08/20 05:32:35;;;;;;;10.52;3.00;;;;;;;22.24;70.72;101537.91;5038260;28;20049;-64
2023/08/20 05:35:04;;;;;;;10.75;2.35;;;;;;;22.16;71.54;101538.94;5054851;28;20057;-65
2023/08/20 05:37:32;;;;;;;12.85;2.80;;;;;;;22.59;70.67;101539.75;5038264;28;20049;-62
2023/08/20 05:40:02;;;;;;;11.75;2.33;;;;;;;22.54;70.05;101540.88;5056224;28;20044;-62
2023/08/20 05:42:32;;;;;;;8.52;2.45;;;;;;;22.50;70.39;101539.16;5037546;28;20064;-63
2023/08/20 05:45:03;;;;;;;11.13;2.53;;;;;;;22.68;69.60;101537.50;5051578;28;20049;-62
2023/08/20 05:47:32;;;;;;;14.27;2.85;;;;;;;22.78;68.88;101532.06;5053738;28;20673;-61
2023/08/20 05:50:00;;;;;;;9.40;2.40;;;;;;;22.70;69.21;101541.53;5038178;28;20494;-63
2023/08/20 05:52:28;;;;;;;10.65;2.92;;;;;;;22.60;69.48;101549.78;5055447;28;20044;-62
2023/08/20 05:54:55;;;;;;;9.27;2.53;;;;;;;22.54;70.16;101548.47;5055823;28;20056;-63
2023/08/20 05:57:23;;;;;;;10.55;2.63;;;;;;;22.61;69.86;101549.44;5055900;28;20051;-62
2023/08/20 05:59:50;;;;;;;11.65;2.67;;;;;;;22.66;69.62;101551.94;5055493;28;20049;-62
2023/08/20 06:02:18;;;;;;;13.40;3.03;;;;;;;22.31;71.17;101548.44;5049373;28;20053;-63
2023/08/20 06:04:45;;;;;;;9.80;2.70;;;;;;;22.50;70.70;101556.00;5054270;28;20049;-63
2023/08/20 06:07:13;;;;;;;6.20;2.10;;;;;;;22.41;70.95;101561.84;5055328;28;20045;-63
2023/08/20 06:09:40;;;;;;;12.63;2.90;;;;;;;22.86;69.60;101564.69;5055299;28;20072;-63
2023/08/20 06:12:08;;;;;;;9.60;2.40;;;;;;;22.80;69.82;101568.22;5055259;28;20049;-63
2023/08/20 06:14:35;;;;;;;10.38;2.55;;;;;;;22.85;69.44;101574.31;5053704;28;20068;-63
2023/08/20 06:17:03;;;;;;;8.77;2.63;;;;;;;22.72;70.27;101574.88;5055074;28;20052;-66
2023/08/20 06:19:30;;;;;;;12.73;2.83;;;;;;;22.76;70.08;101568.16;5052439;28;20045;-63
2023/08/20 06:21:58;;;;;;;11.75;2.67;;;;;;;22.80;69.69;101576.63;5053632;28;20043;-62
2023/08/20 06:24:26;;;;;;;10.23;2.90;;;;;;;22.87;69.74;101571.97;5061472;28;20068;-63
2023/08/20 06:26:53;;;;;;;10.38;3.75;;;;;;;22.95;69.62;101561.63;5054880;28;20048;-62
2023/08/20 06:29:23;;;;;;;12.57;4.70;;;;;;;23.06;68.90;101573.84;5057462;28;20044;-63
2023/08/20 06:31:50;;;;;;;8.80;2.85;;;;;;;23.04;69.03;101567.81;5073380;28;20052;-65
2023/08/20 06:34:18;;;;;;;9.27;2.72;;;;;;;23.10;68.73;101569.13;5073507;28;20060;-62
2023/08/20 06:36:45;;;;;;;9.00;2.50;;;;;;;23.21;68.23;101565.28;5043514;28;20052;-62
2023/08/20 06:39:15;;;;;;;12.85;2.72;;;;;;;23.12;69.01;101556.28;5072095;28;20055;-62
2023/08/20 06:41:42;;;;;;;8.23;2.63;;;;;;;23.00;69.35;101570.56;5074208;28;20063;-65
2023/08/20 06:44:19;;;;;;;8.38;2.53;;;;;;;22.95;69.69;101576.50;5060525;28;20064;-61
2023/08/20 06:46:47;;;;;;;9.90;2.65;;;;;;;23.18;69.30;101573.66;5051423;28;20045;-63
2023/08/20 06:49:14;;;;;;;10.55;2.55;;;;;;;23.17;68.89;101569.22;5039867;28;20049;-61
2023/08/20 06:51:41;;;;;;;8.30;2.42;;;;;;;23.27;68.99;101574.19;5046005;28;20044;-60
2023/08/20 06:54:09;;;;;;;7.53;2.58;;;;;;;23.24;69.22;101567.31;5053219;28;20049;-62
2023/08/20 06:56:37;;;;;;;9.23;2.50;;;;;;;23.35;68.91;101575.94;5054628;28;20064;-62
2023/08/20 06:59:04;;;;;;;9.70;2.60;;;;;;;23.35;68.88;101579.56;5054069;28;20040;-62
2023/08/20 07:01:31;;;;;;;8.25;2.67;;;;;;;23.33;69.45;101569.88;5043163;28;20404;-67
2023/08/20 07:03:59;;;;;;;11.50;2.97;;;;;;;23.43;69.12;101577.69;5044425;28;20037;-60
2023/08/20 07:06:29;;;;;;;10.20;2.90;;;;;;;23.45;69.55;101577.31;5042188;28;20065;-61
2023/08/20 07:08:56;;;;;;;8.13;2.63;;;;;;;23.57;69.25;101572.28;5044426;28;20057;-60
2023/08/20 07:11:24;;;;;;;7.22;2.42;;;;;;;23.73;69.12;101572.06;5046740;28;20052;-60
2023/08/20 07:13:51;;;;;;;10.60;2.35;;;;;;;23.84;68.43;101578.63;5045688;28;20053;-63
2023/08/20 07:16:19;;;;;;;6.78;2.30;;;;;;;23.98;68.13;101584.44;5036590;28;20690;-62
2023/08/20 07:18:46;;;;;;;10.73;2.60;;;;;;;23.82;68.88;101579.03;5045156;28;20068;-60
2023/08/20 07:21:13;;;;;;;12.32;2.63;;;;;;;23.79;68.97;101585.41;5049742;28;20059;-60
2023/08/20 07:23:41;;;;;;;29.50;3.30;;;;;;;23.91;69.38;101588.00;5045061;28;20059;-62
2023/08/20 07:26:10;;;;;;;9.73;3.03;;;;;;;24.11;69.66;101583.03;5046619;28;20053;-63
2023/08/20 07:28:56;;;;;;;8.20;2.67;;;;;;;24.10;69.25;101582.22;5032304;28;20045;-62
2023/08/20 07:31:28;;;;;;;4.88;2.30;;;;;;;24.27;68.99;101583.59;5038821;28;20299;-61
2023/08/20 07:33:56;;;;;;;11.60;2.90;;;;;;;24.48;68.44;101584.66;5045804;28;20045;-60
2023/08/20 07:36:30;;;;;;;9.50;2.65;;;;;;;24.51;68.04;101591.53;5045295;28;20168;-62
2023/08/20 07:38:57;;;;;;;13.15;3.10;;;;;;;24.35;68.49;101590.97;5043996;28;20056;-61
2023/08/20 07:41:25;;;;;;;5.88;2.67;;;;;;;24.23;69.39;101586.38;5047738;28;20052;-61
2023/08/20 07:43:55;;;;;;;9.40;2.88;;;;;;;24.24;69.17;101575.94;5051187;28;20053;-61
2023/08/20 07:46:23;;;;;;;10.35;3.15;;;;;;;24.40;69.06;101579.34;5048942;28;20068;-62
2023/08/20 07:48:51;;;;;;;9.63;2.30;;;;;;;24.74;68.16;101588.56;5054180;28;20511;-61
2023/08/20 07:51:18;;;;;;;8.45;2.50;;;;;;;24.92;67.72;101581.88;5045894;28;20056;-61
2023/08/20 07:53:45;;;;;;;10.27;2.30;;;;;;;24.92;66.93;101581.88;5047292;28;20064;-61
2023/08/20 07:56:13;;;;;;;8.48;2.50;;;;;;;24.79;68.09;101591.03;5032288;28;20057;-62
2023/08/20 07:58:40;;;;;;;7.25;2.60;;;;;;;24.88;68.20;101586.69;5045229;28;20071;-61
2023/08/20 08:01:08;;;;;;;5.82;2.38;;;;;;;24.83;68.13;101583.41;5053617;28;20112;-62
2023/08/20 08:03:35;;;;;;;7.55;2.58;;;;;;;24.98;68.01;101588.81;5072262;28;20063;-62
2023/08/20 08:06:03;;;;;;;9.25;2.88;;;;;;;24.92;67.70;101592.34;5072908;28;20052;-61
2023/08/20 08:08:30;;;;;;;10.00;3.00;;;;;;;24.94;68.25;101592.78;5051791;28;20057;-61
2023/08/20 08:10:57;;;;;;;6.60;2.30;;;;;;;25.11;67.27;101597.75;5048600;28;20049;-61
2023/08/20 08:13:25;;;;;;;10.07;2.53;;;;;;;25.23;66.98;101594.59;5060744;28;21162;-62
2023/08/20 08:15:52;;;;;;;7.22;2.92;;;;;;;25.23;67.58;101591.78;5054060;28;20682;-62
2023/08/20 08:18:20;;;;;;;8.43;2.55;;;;;;;25.44;66.78;101589.97;5069112;28;20052;-62
2023/08/20 08:20:48;;;;;;;8.82;2.78;;;;;;;25.61;66.56;101584.84;5060758;28;20076;-62
2023/08/20 08:23:16;;;;;;;8.70;2.75;;;;;;;25.76;66.12;101595.81;5061362;28;20638;-61
2023/08/20 08:25:44;;;;;;;8.15;2.80;;;;;;;25.85;65.50;101601.91;5058649;28;20045;-60
2023/08/20 08:28:11;;;;;;;9.63;2.72;;;;;;;25.86;65.82;101599.88;5063244;28;20048;-62
2023/08/20 08:30:39;;;;;;;10.30;3.13;;;;;;;25.72;65.92;101600.59;5061775;28;20749;-62
2023/08/20 08:33:07;;;;;;;6.55;2.50;;;;;;;25.78;65.65;101604.69;5049869;28;20453;-61
2023/08/20 08:35:37;;;;;;;8.00;2.67;;;;;;;25.80;66.20;101610.75;5058532;28;20451;-62
2023/08/20 08:38:04;;;;;;;9.30;2.90;;;;;;;25.90;65.93;101604.34;5060096;28;20546;-61
2023/08/20 08:40:33;;;;;;;7.95;3.08;;;;;;;25.81;66.09;101608.72;5050995;28;20044;-62
2023/08/20 08:43:00;;;;;;;7.35;2.75;;;;;;;25.64;66.82;101620.72;5058373;28;20049;-61
2023/08/20 08:45:28;;;;;;;8.88;2.85;;;;;;;25.72;66.54;101613.94;5062758;28;20734;-62
2023/08/20 08:47:55;;;;;;;10.40;3.08;;;;;;;25.89;65.83;101602.69;5057576;28;20049;-62
2023/08/20 08:50:23;;;;;;;8.70;3.22;;;;;;;25.85;66.07;101599.06;5055875;28;20051;-61
2023/08/20 08:52:52;;;;;;;9.27;5.70;;;;;;;26.01;66.05;101601.56;5061743;28;20063;-61
2023/08/20 08:55:20;;;;;;;16.20;4.85;;;;;;;26.17;65.87;101604.91;5061170;28;20059;-63
2023/08/20 08:57:47;;;;;;;10.93;3.50;;;;;;;26.37;65.41;101597.69;5056965;28;20064;-62
2023/08/20 09:00:15;;;;;;;9.38;3.42;;;;;;;26.21;65.69;101603.69;5063428;28;20064;-62
2023/08/20 09:02:42;;;;;;;8.13;3.33;;;;;;;26.39;65.52;101598.91;5062455;28;20049;-62
2023/08/20 09:05:13;;;;;;;7.10;2.85;;;;;;;26.52;64.83;101586.00;5068605;28;20085;-62
2023/08/20 09:07:43;;;;;;;8.80;3.10;;;;;;;26.58;64.15;101590.06;5062000;28;20063;-61
2023/08/20 09:10:10;;;;;;;;;;;;;;;26.49;64.57;101584.00;5047580;28;20063;-62
2023/08/20 09:12:39;;;;;;;8.43;3.17;;;;;;;26.46;64.22;101581.97;5056547;28;19944;-61
2023/08/20 09:15:11;;;;;;;9.38;2.97;;;;;;;26.55;63.68;101578.75;5033400;28;20622;-62
2023/08/20 09:17:41;;;;;;;13.50;2.55;;;;;;;26.77;63.31;101574.78;5034487;28;20562;-61
2023/08/20 09:20:09;;;;;;;7.93;2.72;;;;;;;26.74;63.24;101575.59;5056286;28;20060;-61
2023/08/20 09:22:37;;;;;;;6.45;2.40;;;;;;;26.32;64.64;101567.81;5055576;28;20053;-61
2023/08/20 09:25:05;;;;;;;9.13;3.03;;;;;;;26.42;63.74;101571.84;5045040;28;20049;-62
2023/08/20 09:27:40;;;;;;;7.13;2.67;;;;;;;26.53;63.50;101572.69;5054856;28;20488;-63
2023/08/20 09:30:07;;;;;;;6.20;2.60;;;;;;;26.61;63.06;101574.31;5065160;28;20048;-63
2023/08/20 09:32:35;;;;;;;11.40;3.05;;;;;;;26.31;63.86;101576.69;5074320;28;20655;-62
2023/08/20 09:35:02;;;;;;;8.00;2.67;;;;;;;26.51;63.66;101573.09;5057624;28;20076;-61
2023/08/20 09:37:30;;;;;;;11.63;2.72;;;;;;;26.29;63.57;101567.81;5055448;28;20491;-62
2023/08/20 09:39:57;;;;;;;6.68;2.45;;;;;;;26.40;64.00;101572.25;5055769;28;20049;-60
2023/08/20 09:42:28;;;;;;;6.38;2.40;;;;;;;26.83;62.99;101581.66;5052972;28;20064;-62
2023/08/20 09:44:55;;;;;;;10.88;2.47;;;;;;;26.85;62.31;101576.38;5053823;28;20049;-62
2023/08/20 09:47:25;;;;;;;7.85;2.65;;;;;;;26.84;62.26;101571.94;5051207;28;20120;-62
2023/08/20 09:49:53;;;;;;;5.97;2.60;;;;;;;26.46;62.80;101581.97;5023257;28;20060;-61
2023/08/20 09:52:40;;;;;;;5.82;2.20;;;;;;;26.36;63.74;101579.13;5055109;28;20045;-60
2023/08/20 09:55:09;;;;;;;10.27;2.63;;;;;;;26.82;62.53;101571.53;5054081;28;20400;-61
2023/08/20 09:57:38;;;;;;;10.50;3.03;;;;;;;27.05;61.26;101574.78;5054218;28;20059;-60
2023/08/20 10:00:11;;;;;;;6.25;2.60;;;;;;;26.95;61.88;101574.78;5053297;28;20048;-62
2023/08/20 10:02:42;;;;;;;9.20;2.70;;;;;;;27.05;61.17;101576.78;5048333;28;20037;-62
2023/08/20 10:05:10;;;;;;;6.97;2.30;;;;;;;27.17;60.58;101570.72;5060864;28;20044;-61
2023/08/20 10:07:38;;;;;;;7.70;2.53;;;;;;;27.41;59.22;101576.38;5061018;28;20045;-62
2023/08/20 10:10:08;;;;;;;7.93;2.60;;;;;;;27.22;59.79;101571.13;5041433;28;20060;-60
2023/08/20 10:12:38;;;;;;;7.82;2.97;;;;;;;27.56;58.10;101574.34;5055206;28;20049;-60
2023/08/20 10:15:10;;;;;;;5.65;2.53;;;;;;;27.26;59.68;101571.94;5044173;28;20052;-61
2023/08/20 10:17:39;;;;;;;5.72;2.42;;;;;;;27.33;59.27;101571.94;5046943;28;20045;-63
2023/08/20 10:20:08;;;;;;;8.75;2.90;;;;;;;27.45;58.92;101567.88;5053397;28;20064;-63
2023/08/20 10:22:37;;;;;;;6.95;2.88;;;;;;;27.42;59.92;101569.53;5054959;28;20041;-62
2023/08/20 10:25:09;;;;;;;9.13;2.60;;;;;;;27.45;59.69;101565.03;5053988;28;20060;-63
2023/08/20 10:27:40;;;;;;;7.45;2.28;;;;;;;27.53;59.49;101561.00;5039048;28;20699;-65
2023/08/20 10:30:17;;;;;;;7.60;2.55;;;;;;;27.82;58.17;101561.69;5054271;28;20147;-62
2023/08/20 10:32:52;;;;;;;7.10;2.50;;;;;;;27.73;58.19;101557.28;5066757;28;20041;-60
2023/08/20 10:35:26;;;;;;;10.23;2.50;;;;;;;27.79;58.21;101557.69;5049176;28;20053;-61
2023/08/20 10:38:12;;;;;;;9.65;2.97;;;;;;;27.12;60.03;101559.81;5040876;28;20045;-63
2023/08/20 10:40:55;;;;;;;5.47;2.35;;;;;;;27.32;59.47;101559.00;5035775;28;20054;-64
2023/08/20 10:43:46;;;;;;;8.63;2.60;;;;;;;27.63;59.21;101551.66;5044131;28;20053;-62
2023/08/20 10:46:22;;;;;;;9.07;2.30;;;;;;;27.88;59.31;101555.19;5053755;28;20181;-61
2023/08/20 10:48:55;;;;;;;10.73;2.65;;;;;;;27.87;58.41;101559.25;5035602;28;20060;-63
2023/08/20 10:51:31;;;;;;;7.30;2.80;;;;;;;27.91;58.62;101548.75;5043265;28;20052;-61
2023/08/20 10:54:03;;;;;;;6.70;2.50;;;;;;;28.06;58.08;101552.31;5048117;28;20068;-64
2023/08/20 10:56:44;;;;;;;6.63;2.30;;;;;;;28.18;57.72;101546.16;5052523;28;20420;-62
2023/08/20 10:59:26;;;;;;;8.65;3.08;;;;;;;28.03;58.26;101551.13;5053967;28;20048;-64
2023/08/20 11:02:00;;;;;;;5.97;2.40;;;;;;;28.38;57.38;101550.13;5045170;28;20080;-62
2023/08/20 11:04:34;;;;;;;8.60;3.10;;;;;;;28.43;56.63;101550.47;5052562;28;20051;-62
2023/08/20 11:07:01;;;;;;;8.55;3.15;;;;;;;28.45;56.44;101545.19;5054016;28;20059;-63
2023/08/20 11:09:30;;;;;;;7.25;2.90;;;;;;;28.36;56.24;101550.53;5049744;28;20049;-64
2023/08/20 11:11:58;;;;;;;10.23;2.63;;;;;;;28.50;55.25;101546.78;5015851;28;20053;-62
2023/08/20 11:14:26;;;;;;;5.88;2.28;;;;;;;28.65;53.54;101537.78;5048556;28;20057;-62
2023/08/20 11:16:53;;;;;;;7.63;2.53;;;;;;;28.22;54.18;101549.81;5034297;28;20053;-66
2023/08/20 11:19:22;;;;;;;8.25;2.17;;;;;;;28.10;54.45;101555.94;5034172;28;20042;-63
2023/08/20 11:21:51;;;;;;;6.78;2.17;;;;;;;28.21;54.42;101554.66;5048521;28;20083;-64
2023/08/20 11:24:20;;;;;;;5.72;2.20;;;;;;;28.47;53.45;101550.47;5052210;28;20057;-62
2023/08/20 11:26:48;;;;;;;5.55;2.20;;;;;;;28.42;53.58;101543.19;5049866;28;20049;-62
2023/08/20 11:29:22;;;;;;;7.85;2.60;;;;;;;28.69;52.72;101544.25;5055407;28;20491;-63
2023/08/20 11:31:50;;;;;;;10.60;2.45;;;;;;;28.48;53.30;101544.38;5062529;28;20048;-62